sensor_id;sensor_type;location;lat;lon;timestamp;P1;durP1;ratioP1;P2;durP2;ratioP2
72864;SDS011;61000;48.120;11.548;2023-10-13T00:00:47;5.38;;;3.05;;
72864;SDS011;61000;48.120;11.548;2023-10-13T00:03:14;7.90;;;3.40;;
72864;SDS011;61000;48.120;11.548;2023-10-13T00:05:44;11.30;;;3.35;;
72864;SDS011;61000;48.120;11.548;2023-10-13T00:08:11;6.32;;;3.22;;
72864;SDS011;61000;48.120;11.548;2023-10-13T00:10:40;6.35;;;3.00;;
72864;SDS011;61000;48.120;11.548;2023-10-13T00:13:06;5.82;;;3.28;;
72864;SDS011;61000;48.120;11.548;2023-10-13T00:15:41;7.30;;;3.15;;
72864;SDS011;61000;48.120;11.548;2023-10-13T00:18:21;5.50;;;3.13;;
72864;SDS011;61000;48.120;11.548;2023-10-13T00:20:48;6.43;;;3.00;;
72864;SDS011;61000;48.120;11.548;2023-10-13T00:23:15;5.70;;;2.88;;
72864;SDS011;61000;48.120;11.548;2023-10-13T00:25:48;8.98;;;2.75;;
72864;SDS011;61000;48.120;11.548;2023-10-13T00:28:24;6.45;;;3.10;;
72864;SDS011;61000;48.120;11.548;2023-10-13T00:30:52;5.22;;;3.00;;
72864;SDS011;61000;48.120;11.548;2023-10-13T00:33:26;5.95;;;2.83;;
72864;SDS011;61000;48.120;11.548;2023-10-13T00:35:57;4.82;;;2.90;;
72864;SDS011;61000;48.120;11.548;2023-10-13T00:38:24;4.65;;;2.97;;
72864;SDS011;61000;48.120;11.548;2023-10-13T00:40:53;8.77;;;3.55;;
72864;SDS011;61000;48.120;11.548;2023-10-13T00:43:21;4.13;;;2.90;;
72864;SDS011;61000;48.120;11.548;2023-10-13T00:46:00;6.75;;;2.95;;
72864;SDS011;61000;48.120;11.548;2023-10-13T00:48:37;7.28;;;2.65;;
72864;SDS011;61000;48.120;11.548;2023-10-13T00:51:11;6.40;;;2.95;;
72864;SDS011;61000;48.120;11.548;2023-10-13T00:53:57;8.07;;;2.72;;
72864;SDS011;61000;48.120;11.548;2023-10-13T00:56:25;8.55;;;3.08;;
72864;SDS011;61000;48.120;11.548;2023-10-13T00:58:56;9.13;;;3.50;;
72864;SDS011;61000;48.120;11.548;2023-10-13T01:01:23;5.03;;;2.88;;
72864;SDS011;61000;48.120;11.548;2023-10-13T01:03:56;7.95;;;2.85;;
72864;SDS011;61000;48.120;11.548;2023-10-13T01:06:24;6.82;;;2.90;;
72864;SDS011;61000;48.120;11.548;2023-10-13T01:08:57;6.75;;;2.67;;
72864;SDS011;61000;48.120;11.548;2023-10-13T01:11:26;5.97;;;2.67;;
72864;SDS011;61000;48.120;11.548;2023-10-13T01:13:55;5.40;;;2.63;;
72864;SDS011;61000;48.120;11.548;2023-10-13T01:16:22;7.68;;;2.92;;
72864;SDS011;61000;48.120;11.548;2023-10-13T01:18:51;11.25;;;2.97;;
72864;SDS011;61000;48.120;11.548;2023-10-13T01:21:18;5.32;;;2.85;;
72864;SDS011;61000;48.120;11.548;2023-10-13T01:23:47;7.85;;;2.90;;
72864;SDS011;61000;48.120;11.548;2023-10-13T01:26:15;6.97;;;3.15;;
72864;SDS011;61000;48.120;11.548;2023-10-13T01:28:49;4.63;;;2.85;;
72864;SDS011;61000;48.120;11.548;2023-10-13T01:31:16;5.30;;;2.83;;
72864;SDS011;61000;48.120;11.548;2023-10-13T01:33:52;4.50;;;3.08;;
72864;SDS011;61000;48.120;11.548;2023-10-13T01:36:20;7.93;;;2.35;;
72864;SDS011;61000;48.120;11.548;2023-10-13T01:38:49;6.20;;;2.80;;
72864;SDS011;61000;48.120;11.548;2023-10-13T01:41:16;10.57;;;3.08;;
72864;SDS011;61000;48.120;11.548;2023-10-13T01:43:43;8.48;;;3.22;;
72864;SDS011;61000;48.120;11.548;2023-10-13T01:46:10;7.40;;;3.22;;
72864;SDS011;61000;48.120;11.548;2023-10-13T01:48:39;6.80;;;3.40;;
72864;SDS011;61000;48.120;11.548;2023-10-13T01:51:06;5.95;;;3.53;;
72864;SDS011;61000;48.120;11.548;2023-10-13T01:53:35;5.65;;;3.08;;
72864;SDS011;61000;48.120;11.548;2023-10-13T01:56:03;7.28;;;2.90;;
72864;SDS011;61000;48.120;11.548;2023-10-13T01:58:39;8.45;;;3.47;;
72864;SDS011;61000;48.120;11.548;2023-10-13T02:01:07;8.80;;;2.97;;
72864;SDS011;61000;48.120;11.548;2023-10-13T02:03:35;6.50;;;3.00;;
72864;SDS011;61000;48.120;11.548;2023-10-13T02:06:07;4.95;;;3.42;;
72864;SDS011;61000;48.120;11.548;2023-10-13T02:08:36;4.53;;;3.03;;
72864;SDS011;61000;48.120;11.548;2023-10-13T02:11:07;7.13;;;3.60;;
72864;SDS011;61000;48.120;11.548;2023-10-13T02:13:36;5.50;;;2.83;;
72864;SDS011;61000;48.120;11.548;2023-10-13T02:16:13;6.70;;;3.40;;
72864;SDS011;61000;48.120;11.548;2023-10-13T02:18:44;5.07;;;3.13;;
72864;SDS011;61000;48.120;11.548;2023-10-13T02:21:16;4.57;;;3.00;;
72864;SDS011;61000;48.120;11.548;2023-10-13T02:23:42;5.45;;;2.85;;
72864;SDS011;61000;48.120;11.548;2023-10-13T02:26:14;5.07;;;3.42;;
72864;SDS011;61000;48.120;11.548;2023-10-13T02:28:41;5.22;;;3.53;;
72864;SDS011;61000;48.120;11.548;2023-10-13T02:31:09;5.80;;;3.55;;
72864;SDS011;61000;48.120;11.548;2023-10-13T02:33:37;8.73;;;4.25;;
72864;SDS011;61000;48.120;11.548;2023-10-13T02:36:10;4.35;;;3.15;;
72864;SDS011;61000;48.120;11.548;2023-10-13T02:38:37;6.45;;;3.60;;
72864;SDS011;61000;48.120;11.548;2023-10-13T02:41:12;4.38;;;2.55;;
72864;SDS011;61000;48.120;11.548;2023-10-13T02:43:50;4.38;;;3.38;;
72864;SDS011;61000;48.120;11.548;2023-10-13T02:46:17;8.65;;;3.20;;
72864;SDS011;61000;48.120;11.548;2023-10-13T02:48:47;6.13;;;3.60;;
72864;SDS011;61000;48.120;11.548;2023-10-13T02:51:18;5.78;;;3.42;;
72864;SDS011;61000;48.120;11.548;2023-10-13T02:53:50;7.15;;;3.35;;
72864;SDS011;61000;48.120;11.548;2023-10-13T02:56:19;3.97;;;3.00;;
72864;SDS011;61000;48.120;11.548;2023-10-13T02:58:46;5.53;;;3.03;;
72864;SDS011;61000;48.120;11.548;2023-10-13T03:01:18;9.15;;;3.20;;
72864;SDS011;61000;48.120;11.548;2023-10-13T03:03:45;7.53;;;3.10;;
72864;SDS011;61000;48.120;11.548;2023-10-13T03:06:15;10.57;;;3.72;;
72864;SDS011;61000;48.120;11.548;2023-10-13T03:08:42;5.15;;;3.00;;
72864;SDS011;61000;48.120;11.548;2023-10-13T03:11:10;6.75;;;2.97;;
72864;SDS011;61000;48.120;11.548;2023-10-13T03:13:38;8.27;;;3.45;;
72864;SDS011;61000;48.120;11.548;2023-10-13T03:16:13;5.45;;;2.95;;
72864;SDS011;61000;48.120;11.548;2023-10-13T03:18:41;4.22;;;3.10;;
72864;SDS011;61000;48.120;11.548;2023-10-13T03:21:17;6.35;;;3.47;;
72864;SDS011;61000;48.120;11.548;2023-10-13T03:23:53;6.72;;;3.35;;
72864;SDS011;61000;48.120;11.548;2023-10-13T03:26:21;6.60;;;3.35;;
72864;SDS011;61000;48.120;11.548;2023-10-13T03:28:49;4.80;;;2.90;;
72864;SDS011;61000;48.120;11.548;2023-10-13T03:31:18;11.32;;;3.63;;
72864;SDS011;61000;48.120;11.548;2023-10-13T03:33:52;6.28;;;4.10;;
72864;SDS011;61000;48.120;11.548;2023-10-13T03:36:24;6.28;;;3.63;;
72864;SDS011;61000;48.120;11.548;2023-10-13T03:39:08;8.88;;;3.13;;
72864;SDS011;61000;48.120;11.548;2023-10-13T03:41:36;6.38;;;3.20;;
72864;SDS011;61000;48.120;11.548;2023-10-13T03:44:06;6.13;;;2.88;;
72864;SDS011;61000;48.120;11.548;2023-10-13T03:46:40;8.05;;;3.45;;
72864;SDS011;61000;48.120;11.548;2023-10-13T03:49:07;4.65;;;3.17;;
72864;SDS011;61000;48.120;11.548;2023-10-13T03:51:38;7.75;;;3.67;;
72864;SDS011;61000;48.120;11.548;2023-10-13T03:54:05;9.70;;;3.72;;
72864;SDS011;61000;48.120;11.548;2023-10-13T03:56:33;5.07;;;2.75;;
72864;SDS011;61000;48.120;11.548;2023-10-13T03:59:06;8.20;;;3.13;;
72864;SDS011;61000;48.120;11.548;2023-10-13T04:01:35;8.95;;;3.95;;
72864;SDS011;61000;48.120;11.548;2023-10-13T04:04:12;8.07;;;3.35;;
72864;SDS011;61000;48.120;11.548;2023-10-13T04:06:40;6.10;;;3.50;;
72864;SDS011;61000;48.120;11.548;2023-10-13T04:09:17;4.88;;;3.85;;
72864;SDS011;61000;48.120;11.548;2023-10-13T04:12:16;5.63;;;3.38;;
72864;SDS011;61000;48.120;11.548;2023-10-13T04:15:10;8.10;;;3.30;;
72864;SDS011;61000;48.120;11.548;2023-10-13T04:17:48;9.35;;;3.65;;
72864;SDS011;61000;48.120;11.548;2023-10-13T04:20:16;7.47;;;3.35;;
72864;SDS011;61000;48.120;11.548;2023-10-13T04:22:58;5.75;;;3.33;;
72864;SDS011;61000;48.120;11.548;2023-10-13T04:25:42;8.18;;;3.63;;
72864;SDS011;61000;48.120;11.548;2023-10-13T04:28:26;8.27;;;3.35;;
72864;SDS011;61000;48.120;11.548;2023-10-13T04:31:04;7.53;;;3.50;;
72864;SDS011;61000;48.120;11.548;2023-10-13T04:33:38;7.93;;;3.47;;
72864;SDS011;61000;48.120;11.548;2023-10-13T04:36:16;6.45;;;3.60;;
72864;SDS011;61000;48.120;11.548;2023-10-13T04:39:01;9.52;;;3.70;;
72864;SDS011;61000;48.120;11.548;2023-10-13T04:41:35;6.93;;;3.90;;
72864;SDS011;61000;48.120;11.548;2023-10-13T04:44:04;8.20;;;3.70;;
72864;SDS011;61000;48.120;11.548;2023-10-13T04:46:50;7.25;;;3.33;;
72864;SDS011;61000;48.120;11.548;2023-10-13T04:49:33;8.32;;;3.65;;
72864;SDS011;61000;48.120;11.548;2023-10-13T04:52:17;10.77;;;3.80;;
72864;SDS011;61000;48.120;11.548;2023-10-13T04:55:01;9.55;;;3.72;;
72864;SDS011;61000;48.120;11.548;2023-10-13T04:57:44;8.45;;;4.07;;
72864;SDS011;61000;48.120;11.548;2023-10-13T05:00:15;5.13;;;3.70;;
72864;SDS011;61000;48.120;11.548;2023-10-13T05:03:01;7.40;;;4.18;;
72864;SDS011;61000;48.120;11.548;2023-10-13T05:16:18;6.70;;;3.72;;
72864;SDS011;61000;48.120;11.548;2023-10-13T05:19:03;7.90;;;4.03;;
72864;SDS011;61000;48.120;11.548;2023-10-13T05:21:47;9.93;;;3.65;;
72864;SDS011;61000;48.120;11.548;2023-10-13T05:24:32;11.52;;;3.70;;
72864;SDS011;61000;48.120;11.548;2023-10-13T05:27:16;7.47;;;3.65;;
72864;SDS011;61000;48.120;11.548;2023-10-13T05:30:00;9.90;;;3.78;;
72864;SDS011;61000;48.120;11.548;2023-10-13T05:32:46;9.00;;;3.65;;
72864;SDS011;61000;48.120;11.548;2023-10-13T05:35:31;8.50;;;3.25;;
72864;SDS011;61000;48.120;11.548;2023-10-13T05:38:15;5.18;;;3.17;;
72864;SDS011;61000;48.120;11.548;2023-10-13T05:41:00;10.63;;;3.70;;
72864;SDS011;61000;48.120;11.548;2023-10-13T05:43:45;7.07;;;4.20;;
72864;SDS011;61000;48.120;11.548;2023-10-13T05:46:30;10.10;;;3.45;;
72864;SDS011;61000;48.120;11.548;2023-10-13T05:49:16;8.88;;;3.83;;
72864;SDS011;61000;48.120;11.548;2023-10-13T05:52:00;10.18;;;3.85;;
72864;SDS011;61000;48.120;11.548;2023-10-13T05:54:33;10.50;;;4.50;;
72864;SDS011;61000;48.120;11.548;2023-10-13T05:57:17;12.75;;;4.03;;
72864;SDS011;61000;48.120;11.548;2023-10-13T06:00:04;9.65;;;3.72;;
72864;SDS011;61000;48.120;11.548;2023-10-13T06:02:49;7.93;;;3.83;;
72864;SDS011;61000;48.120;11.548;2023-10-13T06:05:37;10.77;;;3.88;;
72864;SDS011;61000;48.120;11.548;2023-10-13T06:08:22;9.77;;;5.28;;
72864;SDS011;61000;48.120;11.548;2023-10-13T06:11:06;10.98;;;3.75;;
72864;SDS011;61000;48.120;11.548;2023-10-13T06:13:51;11.18;;;3.50;;
72864;SDS011;61000;48.120;11.548;2023-10-13T06:16:35;9.80;;;4.50;;
72864;SDS011;61000;48.120;11.548;2023-10-13T06:19:20;11.95;;;4.32;;
72864;SDS011;61000;48.120;11.548;2023-10-13T06:22:06;6.93;;;4.32;;
72864;SDS011;61000;48.120;11.548;2023-10-13T06:24:53;8.50;;;4.47;;
72864;SDS011;61000;48.120;11.548;2023-10-13T06:27:38;14.13;;;4.63;;
72864;SDS011;61000;48.120;11.548;2023-10-13T06:30:23;6.53;;;3.53;;
72864;SDS011;61000;48.120;11.548;2023-10-13T06:32:50;7.88;;;3.47;;
72864;SDS011;61000;48.120;11.548;2023-10-13T06:35:18;5.53;;;3.78;;
72864;SDS011;61000;48.120;11.548;2023-10-13T06:37:49;12.07;;;3.85;;
72864;SDS011;61000;48.120;11.548;2023-10-13T06:40:16;9.48;;;3.25;;
72864;SDS011;61000;48.120;11.548;2023-10-13T06:42:58;7.82;;;3.67;;
72864;SDS011;61000;48.120;11.548;2023-10-13T06:45:39;10.77;;;3.60;;
72864;SDS011;61000;48.120;11.548;2023-10-13T06:48:06;7.65;;;2.83;;
72864;SDS011;61000;48.120;11.548;2023-10-13T06:50:36;7.57;;;3.80;;
72864;SDS011;61000;48.120;11.548;2023-10-13T06:53:08;9.00;;;4.30;;
72864;SDS011;61000;48.120;11.548;2023-10-13T06:55:37;9.63;;;3.28;;
72864;SDS011;61000;48.120;11.548;2023-10-13T06:58:05;5.72;;;3.42;;
72864;SDS011;61000;48.120;11.548;2023-10-13T07:00:32;7.38;;;3.63;;
72864;SDS011;61000;48.120;11.548;2023-10-13T07:03:03;7.40;;;3.65;;
72864;SDS011;61000;48.120;11.548;2023-10-13T07:05:43;6.20;;;2.78;;
72864;SDS011;61000;48.120;11.548;2023-10-13T07:08:14;7.15;;;3.08;;
72864;SDS011;61000;48.120;11.548;2023-10-13T07:10:47;9.23;;;3.28;;
72864;SDS011;61000;48.120;11.548;2023-10-13T07:13:16;7.70;;;3.55;;
72864;SDS011;61000;48.120;11.548;2023-10-13T07:15:44;5.75;;;3.10;;
72864;SDS011;61000;48.120;11.548;2023-10-13T07:18:15;6.82;;;3.50;;
72864;SDS011;61000;48.120;11.548;2023-10-13T07:20:43;5.63;;;3.10;;
72864;SDS011;61000;48.120;11.548;2023-10-13T07:23:11;4.28;;;3.05;;
72864;SDS011;61000;48.120;11.548;2023-10-13T07:25:50;9.10;;;3.53;;
72864;SDS011;61000;48.120;11.548;2023-10-13T07:28:18;11.00;;;3.30;;
72864;SDS011;61000;48.120;11.548;2023-10-13T07:30:45;11.30;;;3.85;;
72864;SDS011;61000;48.120;11.548;2023-10-13T07:33:36;8.15;;;3.42;;
72864;SDS011;61000;48.120;11.548;2023-10-13T07:36:04;8.68;;;2.95;;
72864;SDS011;61000;48.120;11.548;2023-10-13T07:38:40;8.95;;;3.50;;
72864;SDS011;61000;48.120;11.548;2023-10-13T07:41:10;8.20;;;3.40;;
72864;SDS011;61000;48.120;11.548;2023-10-13T07:43:40;22.90;;;4.72;;
72864;SDS011;61000;48.120;11.548;2023-10-13T07:46:08;7.63;;;3.45;;
72864;SDS011;61000;48.120;11.548;2023-10-13T07:48:36;9.43;;;3.42;;
72864;SDS011;61000;48.120;11.548;2023-10-13T07:51:04;5.70;;;3.15;;
72864;SDS011;61000;48.120;11.548;2023-10-13T07:53:35;6.80;;;3.83;;
72864;SDS011;61000;48.120;11.548;2023-10-13T07:56:05;8.40;;;3.20;;
72864;SDS011;61000;48.120;11.548;2023-10-13T07:58:35;11.43;;;3.58;;
72864;SDS011;61000;48.120;11.548;2023-10-13T08:01:12;8.93;;;3.58;;
72864;SDS011;61000;48.120;11.548;2023-10-13T08:03:43;7.47;;;3.22;;
72864;SDS011;61000;48.120;11.548;2023-10-13T08:06:10;6.80;;;3.33;;
72864;SDS011;61000;48.120;11.548;2023-10-13T08:08:51;8.02;;;3.10;;
72864;SDS011;61000;48.120;11.548;2023-10-13T08:11:20;5.75;;;3.45;;
72864;SDS011;61000;48.120;11.548;2023-10-13T08:14:01;8.43;;;3.03;;
72864;SDS011;61000;48.120;11.548;2023-10-13T08:16:36;10.20;;;3.00;;
72864;SDS011;61000;48.120;11.548;2023-10-13T08:19:18;8.68;;;2.85;;
72864;SDS011;61000;48.120;11.548;2023-10-13T08:21:46;7.20;;;3.80;;
72864;SDS011;61000;48.120;11.548;2023-10-13T08:24:17;7.78;;;4.78;;
72864;SDS011;61000;48.120;11.548;2023-10-13T08:26:52;11.18;;;3.42;;
72864;SDS011;61000;48.120;11.548;2023-10-13T08:29:40;12.77;;;3.15;;
72864;SDS011;61000;48.120;11.548;2023-10-13T08:32:39;7.07;;;3.20;;
72864;SDS011;61000;48.120;11.548;2023-10-13T08:35:21;4.90;;;2.58;;
72864;SDS011;61000;48.120;11.548;2023-10-13T08:38:19;11.13;;;2.67;;
72864;SDS011;61000;48.120;11.548;2023-10-13T08:40:54;9.30;;;3.17;;
72864;SDS011;61000;48.120;11.548;2023-10-13T08:43:50;5.00;;;3.33;;
72864;SDS011;61000;48.120;11.548;2023-10-13T08:46:20;8.77;;;3.55;;
72864;SDS011;61000;48.120;11.548;2023-10-13T08:49:03;7.43;;;2.97;;
72864;SDS011;61000;48.120;11.548;2023-10-13T08:51:39;8.18;;;2.80;;
72864;SDS011;61000;48.120;11.548;2023-10-13T08:54:13;6.10;;;2.78;;
72864;SDS011;61000;48.120;11.548;2023-10-13T08:57:00;7.72;;;2.67;;
72864;SDS011;61000;48.120;11.548;2023-10-13T08:59:45;10.20;;;2.75;;
72864;SDS011;61000;48.120;11.548;2023-10-13T09:02:22;10.05;;;3.10;;
72864;SDS011;61000;48.120;11.548;2023-10-13T09:05:10;9.05;;;2.70;;
72864;SDS011;61000;48.120;11.548;2023-10-13T09:07:51;8.35;;;2.67;;
72864;SDS011;61000;48.120;11.548;2023-10-13T09:10:21;7.70;;;2.67;;
72864;SDS011;61000;48.120;11.548;2023-10-13T09:12:58;10.50;;;3.28;;
72864;SDS011;61000;48.120;11.548;2023-10-13T09:15:29;8.95;;;3.10;;
72864;SDS011;61000;48.120;11.548;2023-10-13T09:18:23;7.35;;;2.40;;
72864;SDS011;61000;48.120;11.548;2023-10-13T09:21:08;9.75;;;2.70;;
72864;SDS011;61000;48.120;11.548;2023-10-13T09:23:52;6.70;;;2.63;;
72864;SDS011;61000;48.120;11.548;2023-10-13T09:26:39;5.32;;;2.28;;
72864;SDS011;61000;48.120;11.548;2023-10-13T09:29:14;9.57;;;2.85;;
72864;SDS011;61000;48.120;11.548;2023-10-13T09:31:43;7.57;;;3.35;;
72864;SDS011;61000;48.120;11.548;2023-10-13T09:34:20;10.07;;;2.92;;
72864;SDS011;61000;48.120;11.548;2023-10-13T09:36:48;8.07;;;2.45;;
72864;SDS011;61000;48.120;11.548;2023-10-13T09:39:22;6.38;;;3.40;;
72864;SDS011;61000;48.120;11.548;2023-10-13T09:41:59;8.38;;;3.10;;
72864;SDS011;61000;48.120;11.548;2023-10-13T09:44:26;4.93;;;3.05;;
72864;SDS011;61000;48.120;11.548;2023-10-13T09:46:57;7.72;;;2.35;;
72864;SDS011;61000;48.120;11.548;2023-10-13T09:49:34;7.57;;;2.33;;
72864;SDS011;61000;48.120;11.548;2023-10-13T09:52:13;5.38;;;2.05;;
72864;SDS011;61000;48.120;11.548;2023-10-13T09:54:49;6.07;;;2.15;;
72864;SDS011;61000;48.120;11.548;2023-10-13T09:57:26;6.53;;;2.10;;
72864;SDS011;61000;48.120;11.548;2023-10-13T10:00:01;4.68;;;2.92;;
72864;SDS011;61000;48.120;11.548;2023-10-13T10:02:52;8.52;;;2.67;;
72864;SDS011;61000;48.120;11.548;2023-10-13T10:05:25;6.60;;;2.85;;
72864;SDS011;61000;48.120;11.548;2023-10-13T10:07:55;6.18;;;3.10;;
72864;SDS011;61000;48.120;11.548;2023-10-13T10:10:25;6.00;;;2.45;;
72864;SDS011;61000;48.120;11.548;2023-10-13T10:13:13;6.00;;;2.88;;
72864;SDS011;61000;48.120;11.548;2023-10-13T10:15:48;12.68;;;2.95;;
72864;SDS011;61000;48.120;11.548;2023-10-13T10:18:22;8.48;;;2.75;;
72864;SDS011;61000;48.120;11.548;2023-10-13T10:21:02;7.93;;;2.72;;
72864;SDS011;61000;48.120;11.548;2023-10-13T10:23:32;6.53;;;3.00;;
72864;SDS011;61000;48.120;11.548;2023-10-13T10:26:10;7.72;;;3.25;;
72864;SDS011;61000;48.120;11.548;2023-10-13T10:28:41;8.40;;;2.72;;
72864;SDS011;61000;48.120;11.548;2023-10-13T10:31:09;13.63;;;4.05;;
72864;SDS011;61000;48.120;11.548;2023-10-13T10:33:39;7.80;;;2.97;;
72864;SDS011;61000;48.120;11.548;2023-10-13T10:36:08;11.45;;;3.25;;
72864;SDS011;61000;48.120;11.548;2023-10-13T10:38:51;11.77;;;2.70;;
72864;SDS011;61000;48.120;11.548;2023-10-13T10:41:25;18.65;;;3.00;;
72864;SDS011;61000;48.120;11.548;2023-10-13T10:43:55;9.23;;;2.75;;
72864;SDS011;61000;48.120;11.548;2023-10-13T10:46:25;8.50;;;2.83;;
72864;SDS011;61000;48.120;11.548;2023-10-13T10:48:53;6.60;;;2.70;;
72864;SDS011;61000;48.120;11.548;2023-10-13T10:51:27;7.78;;;3.50;;
72864;SDS011;61000;48.120;11.548;2023-10-13T10:53:56;4.60;;;2.42;;
72864;SDS011;61000;48.120;11.548;2023-10-13T10:56:36;7.35;;;3.08;;
72864;SDS011;61000;48.120;11.548;2023-10-13T10:59:03;8.48;;;3.00;;
72864;SDS011;61000;48.120;11.548;2023-10-13T11:01:42;7.03;;;3.17;;
72864;SDS011;61000;48.120;11.548;2023-10-13T11:04:13;7.88;;;3.00;;
72864;SDS011;61000;48.120;11.548;2023-10-13T11:06:48;8.90;;;2.50;;
72864;SDS011;61000;48.120;11.548;2023-10-13T11:09:23;6.63;;;2.83;;
72864;SDS011;61000;48.120;11.548;2023-10-13T11:11:57;4.30;;;2.33;;
72864;SDS011;61000;48.120;11.548;2023-10-13T11:14:40;6.13;;;2.50;;
72864;SDS011;61000;48.120;11.548;2023-10-13T11:17:08;6.85;;;2.10;;
72864;SDS011;61000;48.120;11.548;2023-10-13T11:19:46;11.27;;;2.92;;
72864;SDS011;61000;48.120;11.548;2023-10-13T11:22:15;5.50;;;2.42;;
72864;SDS011;61000;48.120;11.548;2023-10-13T11:24:57;4.30;;;2.08;;
72864;SDS011;61000;48.120;11.548;2023-10-13T11:27:29;8.43;;;2.60;;
72864;SDS011;61000;48.120;11.548;2023-10-13T11:30:22;6.97;;;2.70;;
72864;SDS011;61000;48.120;11.548;2023-10-13T11:33:01;6.20;;;2.65;;
72864;SDS011;61000;48.120;11.548;2023-10-13T11:35:31;8.52;;;2.30;;
72864;SDS011;61000;48.120;11.548;2023-10-13T11:38:13;5.80;;;2.80;;
72864;SDS011;61000;48.120;11.548;2023-10-13T11:40:40;7.97;;;2.50;;
72864;SDS011;61000;48.120;11.548;2023-10-13T11:43:31;5.38;;;2.00;;
72864;SDS011;61000;48.120;11.548;2023-10-13T11:46:18;9.88;;;4.20;;
72864;SDS011;61000;48.120;11.548;2023-10-13T11:49:06;8.18;;;2.88;;
72864;SDS011;61000;48.120;11.548;2023-10-13T11:51:43;5.25;;;2.25;;
72864;SDS011;61000;48.120;11.548;2023-10-13T11:54:12;7.40;;;2.20;;
72864;SDS011;61000;48.120;11.548;2023-10-13T11:56:40;12.93;;;2.35;;
72864;SDS011;61000;48.120;11.548;2023-10-13T11:59:07;5.72;;;2.45;;
72864;SDS011;61000;48.120;11.548;2023-10-13T12:01:41;5.35;;;2.47;;
72864;SDS011;61000;48.120;11.548;2023-10-13T12:04:23;6.32;;;2.20;;
72864;SDS011;61000;48.120;11.548;2023-10-13T12:06:58;7.45;;;2.50;;
72864;SDS011;61000;48.120;11.548;2023-10-13T12:09:41;5.72;;;2.47;;
72864;SDS011;61000;48.120;11.548;2023-10-13T12:12:21;7.00;;;2.58;;
72864;SDS011;61000;48.120;11.548;2023-10-13T12:14:48;9.57;;;2.88;;
72864;SDS011;61000;48.120;11.548;2023-10-13T12:17:34;6.25;;;1.95;;
72864;SDS011;61000;48.120;11.548;2023-10-13T12:20:04;8.05;;;3.00;;
72864;SDS011;61000;48.120;11.548;2023-10-13T12:22:36;9.23;;;2.97;;
72864;SDS011;61000;48.120;11.548;2023-10-13T12:25:06;7.13;;;2.47;;
72864;SDS011;61000;48.120;11.548;2023-10-13T12:27:50;7.25;;;2.60;;
72864;SDS011;61000;48.120;11.548;2023-10-13T12:30:21;5.93;;;2.10;;
72864;SDS011;61000;48.120;11.548;2023-10-13T12:33:00;9.65;;;2.05;;
72864;SDS011;61000;48.120;11.548;2023-10-13T12:35:34;10.38;;;2.30;;
72864;SDS011;61000;48.120;11.548;2023-10-13T12:38:11;4.65;;;2.10;;
72864;SDS011;61000;48.120;11.548;2023-10-13T12:41:05;9.63;;;2.45;;
72864;SDS011;61000;48.120;11.548;2023-10-13T12:43:50;7.03;;;2.50;;
72864;SDS011;61000;48.120;11.548;2023-10-13T12:46:34;7.72;;;2.33;;
72864;SDS011;61000;48.120;11.548;2023-10-13T12:49:18;7.95;;;2.00;;
72864;SDS011;61000;48.120;11.548;2023-10-13T12:52:04;7.72;;;2.00;;
72864;SDS011;61000;48.120;11.548;2023-10-13T12:54:41;7.82;;;2.80;;
72864;SDS011;61000;48.120;11.548;2023-10-13T12:57:13;9.52;;;2.33;;
72864;SDS011;61000;48.120;11.548;2023-10-13T12:59:40;6.10;;;2.03;;
72864;SDS011;61000;48.120;11.548;2023-10-13T13:02:07;10.43;;;2.50;;
72864;SDS011;61000;48.120;11.548;2023-10-13T13:04:40;9.82;;;2.92;;
72864;SDS011;61000;48.120;11.548;2023-10-13T13:07:09;10.80;;;2.50;;
72864;SDS011;61000;48.120;11.548;2023-10-13T13:09:39;6.57;;;2.83;;
72864;SDS011;61000;48.120;11.548;2023-10-13T13:12:06;9.80;;;2.97;;
72864;SDS011;61000;48.120;11.548;2023-10-13T13:14:34;6.75;;;2.28;;
72864;SDS011;61000;48.120;11.548;2023-10-13T13:17:01;7.68;;;2.03;;
72864;SDS011;61000;48.120;11.548;2023-10-13T13:19:31;9.40;;;2.70;;
72864;SDS011;61000;48.120;11.548;2023-10-13T13:22:01;5.10;;;2.50;;
72864;SDS011;61000;48.120;11.548;2023-10-13T13:24:29;8.95;;;2.30;;
72864;SDS011;61000;48.120;11.548;2023-10-13T13:26:56;7.35;;;2.42;;
72864;SDS011;61000;48.120;11.548;2023-10-13T13:29:28;10.68;;;2.90;;
72864;SDS011;61000;48.120;11.548;2023-10-13T13:31:57;11.40;;;2.60;;
72864;SDS011;61000;48.120;11.548;2023-10-13T13:34:25;8.60;;;2.75;;
72864;SDS011;61000;48.120;11.548;2023-10-13T13:36:52;11.18;;;2.08;;
72864;SDS011;61000;48.120;11.548;2023-10-13T13:39:19;7.05;;;2.95;;
72864;SDS011;61000;48.120;11.548;2023-10-13T13:41:54;7.03;;;2.63;;
72864;SDS011;61000;48.120;11.548;2023-10-13T13:44:22;9.85;;;2.75;;
72864;SDS011;61000;48.120;11.548;2023-10-13T13:46:54;8.82;;;2.53;;
72864;SDS011;61000;48.120;11.548;2023-10-13T13:49:24;8.88;;;2.63;;
72864;SDS011;61000;48.120;11.548;2023-10-13T13:52:05;5.65;;;2.47;;
72864;SDS011;61000;48.120;11.548;2023-10-13T13:54:34;6.60;;;2.70;;
72864;SDS011;61000;48.120;11.548;2023-10-13T13:57:01;7.47;;;2.60;;
72864;SDS011;61000;48.120;11.548;2023-10-13T13:59:28;7.25;;;2.35;;
72864;SDS011;61000;48.120;11.548;2023-10-13T14:01:59;9.15;;;2.90;;
72864;SDS011;61000;48.120;11.548;2023-10-13T14:04:33;6.75;;;2.78;;
72864;SDS011;61000;48.120;11.548;2023-10-13T14:07:00;6.97;;;2.25;;
72864;SDS011;61000;48.120;11.548;2023-10-13T14:09:31;12.35;;;2.92;;
72864;SDS011;61000;48.120;11.548;2023-10-13T14:12:01;6.70;;;2.58;;
72864;SDS011;61000;48.120;11.548;2023-10-13T14:14:54;8.77;;;3.58;;
72864;SDS011;61000;48.120;11.548;2023-10-13T14:17:22;10.95;;;4.40;;
72864;SDS011;61000;48.120;11.548;2023-10-13T14:19:55;10.13;;;3.60;;
72864;SDS011;61000;48.120;11.548;2023-10-13T14:22:23;9.02;;;3.20;;
72864;SDS011;61000;48.120;11.548;2023-10-13T14:24:51;5.78;;;3.08;;
72864;SDS011;61000;48.120;11.548;2023-10-13T14:27:20;6.22;;;2.60;;
72864;SDS011;61000;48.120;11.548;2023-10-13T14:29:49;4.35;;;2.30;;
72864;SDS011;61000;48.120;11.548;2023-10-13T14:32:18;9.45;;;2.38;;
72864;SDS011;61000;48.120;11.548;2023-10-13T14:34:49;7.22;;;2.75;;
72864;SDS011;61000;48.120;11.548;2023-10-13T14:37:22;6.70;;;2.28;;
72864;SDS011;61000;48.120;11.548;2023-10-13T14:39:54;6.32;;;2.70;;
72864;SDS011;61000;48.120;11.548;2023-10-13T14:42:23;5.88;;;2.20;;
72864;SDS011;61000;48.120;11.548;2023-10-13T14:44:50;7.18;;;2.60;;
72864;SDS011;61000;48.120;11.548;2023-10-13T14:47:21;5.78;;;2.50;;
72864;SDS011;61000;48.120;11.548;2023-10-13T14:49:50;6.03;;;2.53;;
72864;SDS011;61000;48.120;11.548;2023-10-13T14:52:20;10.98;;;3.72;;
72864;SDS011;61000;48.120;11.548;2023-10-13T14:54:48;6.32;;;2.30;;
72864;SDS011;61000;48.120;11.548;2023-10-13T14:57:20;7.35;;;2.58;;
72864;SDS011;61000;48.120;11.548;2023-10-13T14:59:50;8.63;;;2.70;;
72864;SDS011;61000;48.120;11.548;2023-10-13T15:02:17;7.53;;;2.65;;
72864;SDS011;61000;48.120;11.548;2023-10-13T15:04:45;11.45;;;2.78;;
72864;SDS011;61000;48.120;11.548;2023-10-13T15:07:14;7.68;;;2.88;;
72864;SDS011;61000;48.120;11.548;2023-10-13T15:09:41;7.30;;;2.42;;
72864;SDS011;61000;48.120;11.548;2023-10-13T15:12:13;8.95;;;2.47;;
72864;SDS011;61000;48.120;11.548;2023-10-13T15:14:40;13.85;;;4.15;;
72864;SDS011;61000;48.120;11.548;2023-10-13T15:17:08;10.57;;;4.13;;
72864;SDS011;61000;48.120;11.548;2023-10-13T15:19:34;7.07;;;2.75;;
72864;SDS011;61000;48.120;11.548;2023-10-13T15:22:04;8.20;;;4.07;;
72864;SDS011;61000;48.120;11.548;2023-10-13T15:24:32;8.07;;;3.53;;